New Port Richey, Florida
Current Conditions -  °F | °C
As of 9:15 AM on Monday 20 Oct 2014 (Local Time) from KCLW Reporting Station
Clear Clear  
Wind Chill: 70°   Ceiling: Unl
Heat Index: 70°   Visibility: 10mi
Dew Point: 64°   Wind: 5mph
Humidity: 83%   Direction: 110°ESE
Pressure: 30.05"   Gusts: NA
Location:  28.25°N, 82.72°W
Report Text: KCLW 201315Z AUTO 11004KT 10SM CLR 21/18 A3005 RMK AO2
Loading
Personal Weather Stations






























Interactive Weather Map
Tropical Storm Tracking
New forecast layout! Learn more

10-Day Weather Forecast

Advertisements
Track Severe Weather on mobile